Time;durP1;ratioP1;P1;durP2;ratioP2;P2;SDS_P1;SDS_P2;PMS_P1;PMS_P2;Temp;Humidity;BMP_temperature;BMP_pressure;BME280_temperature;BME280_humidity;BME280_pressure;Samples;Min_cycle;Max_cycle;Signal;HPM_P1;HPM_P2
2021/04/17 00:01:44;;;;;;;2.27;1.85;;;;;;;18.49;39.39;99240.38;1717351;81;21211;-15
2021/04/17 00:04:12;;;;;;;2.08;1.87;;;;;;;18.47;39.35;99238.77;1712316;82;21157;-16
2021/04/17 00:06:40;;;;;;;1.80;1.70;;;;;;;18.42;39.30;99238.25;1691557;82;21248;-15
2021/04/17 00:09:11;;;;;;;1.82;1.65;;;;;;;18.40;39.33;99240.19;1757463;81;21230;-15
2021/04/17 00:11:41;;;;;;;1.98;1.87;;;;;;;18.37;39.29;99242.58;1729638;81;21189;-18
2021/04/17 00:14:14;;;;;;;3.12;2.83;;;;;;;18.36;39.25;99241.73;1723163;81;21189;-17
2021/04/17 00:16:42;;;;;;;2.90;2.70;;;;;;;18.34;39.27;99243.66;1734486;81;21130;-18
2021/04/17 00:19:10;;;;;;;2.00;1.90;;;;;;;18.30;39.25;99242.16;1737667;81;21266;-18
2021/04/17 00:21:38;;;;;;;1.92;1.80;;;;;;;18.27;39.29;99240.20;1705956;81;21216;-16
2021/04/17 00:24:06;;;;;;;2.45;2.00;;;;;;;18.26;39.30;99240.69;1732494;81;21136;-17
2021/04/17 00:26:34;;;;;;;1.75;1.65;;;;;;;18.25;39.30;99237.64;1730632;80;21150;-16
2021/04/17 00:29:03;;;;;;;1.98;1.77;;;;;;;18.26;39.31;99245.17;1730218;81;21196;-17
2021/04/17 00:31:31;;;;;;;1.80;1.70;;;;;;;18.26;39.31;99239.84;1702444;81;21231;-17
2021/04/17 00:33:59;;;;;;;1.50;1.40;;;;;;;18.26;39.25;99237.18;1728741;81;21203;-16
2021/04/17 00:36:27;;;;;;;1.50;1.40;;;;;;;18.27;39.22;99242.86;1695595;81;21188;-15
2021/04/17 00:38:55;;;;;;;1.42;1.32;;;;;;;18.28;39.18;99248.56;1709895;81;21176;-15
2021/04/17 00:41:23;;;;;;;1.75;1.65;;;;;;;18.25;39.19;99253.62;1733835;80;21181;-16
2021/04/17 00:43:51;;;;;;;1.70;1.60;;;;;;;18.22;39.21;99252.98;1732724;80;21421;-18
2021/04/17 00:46:20;;;;;;;3.47;2.92;;;;;;;18.20;39.25;99245.94;1655110;83;21668;-16
2021/04/17 00:48:48;;;;;;;4.70;3.22;;;;;;;18.20;39.19;99253.09;1697073;83;21213;-16
2021/04/17 00:51:15;;;;;;;3.17;2.87;;;;;;;18.16;39.06;99253.80;1671642;84;21256;-16
2021/04/17 00:53:43;;;;;;;2.58;2.37;;;;;;;18.09;39.10;99249.87;1684333;83;21605;-15
2021/04/17 00:56:12;;;;;;;2.77;2.58;;;;;;;18.05;39.17;99255.02;1662958;84;22824;-15
2021/04/17 00:58:40;;;;;;;2.35;2.10;;;;;;;18.01;39.16;99258.86;1685788;82;21210;-16
2021/04/17 01:01:08;;;;;;;2.55;2.35;;;;;;;18.00;39.20;99263.34;1674210;84;21254;-15
2021/04/17 01:03:52;;;;;;;2.17;1.55;;;;;;;18.01;39.19;99266.36;1680795;83;21181;-15
2021/04/17 01:06:29;;;;;;;1.92;1.82;;;;;;;18.00;39.17;99263.34;1666823;84;21263;-15
2021/04/17 01:09:10;;;;;;;1.95;1.85;;;;;;;18.00;39.18;99265.13;1658851;85;21518;-15
2021/04/17 01:11:42;;;;;;;1.62;1.52;;;;;;;17.99;39.10;99264.78;1685250;84;21214;-16
2021/04/17 01:14:10;;;;;;;1.80;1.70;;;;;;;17.99;39.05;99266.11;1658718;83;21213;-18
2021/04/17 01:16:38;;;;;;;1.85;1.70;;;;;;;17.99;38.91;99263.45;1695629;83;21185;-15
2021/04/17 01:19:12;;;;;;;1.62;1.52;;;;;;;17.98;38.91;99265.73;1669275;83;21205;-17
2021/04/17 01:21:40;;;;;;;1.60;1.50;;;;;;;17.99;38.81;99259.45;1677388;83;21217;-15
2021/04/17 01:24:16;;;;;;;1.40;1.30;;;;;;;17.98;38.80;99267.90;1693477;84;21200;-17
2021/04/17 01:26:44;;;;;;;1.65;1.50;;;;;;;17.98;38.76;99265.73;1680152;85;21184;-17
2021/04/17 01:29:11;;;;;;;2.25;1.52;;;;;;;17.98;38.69;99269.72;1672657;84;21775;-16
2021/04/17 01:31:40;;;;;;;2.55;1.47;;;;;;;17.97;38.61;99267.55;1697624;83;21193;-16
2021/04/17 01:34:08;;;;;;;1.57;1.50;;;;;;;17.97;38.61;99270.66;1683505;83;21774;-15
2021/04/17 01:36:37;;;;;;;1.67;1.57;;;;;;;17.97;38.61;99270.66;1698825;82;21165;-16
2021/04/17 01:39:13;;;;;;;1.27;1.17;;;;;;;17.97;38.62;99271.53;1724601;81;21192;-15
2021/04/17 01:41:48;;;;;;;1.85;1.75;;;;;;;17.98;38.53;99275.05;1733142;81;21183;-16
2021/04/17 01:44:22;;;;;;;1.32;1.22;;;;;;;17.97;38.47;99275.98;1720880;82;21207;-15
2021/04/17 01:46:58;;;;;;;1.42;1.32;;;;;;;17.93;38.51;99279.34;1686853;83;21177;-15
2021/04/17 01:49:26;;;;;;;1.30;1.20;;;;;;;17.88;38.51;99277.48;1716438;82;21137;-16
2021/04/17 01:51:54;;;;;;;1.20;1.20;;;;;;;17.82;38.57;99282.72;1775803;79;21165;-16
2021/04/17 01:54:26;;;;;;;1.27;1.17;;;;;;;17.80;38.70;99282.44;1761419;79;21156;-16
2021/04/17 01:56:58;;;;;;;1.07;1.05;;;;;;;17.74;38.80;99282.39;1756600;79;21148;-17
2021/04/17 01:59:28;;;;;;;1.12;1.10;;;;;;;17.70;38.85;99275.59;1751300;78;21351;-14
2021/04/17 02:01:55;;;;;;;0.90;0.90;;;;;;;17.71;38.81;99279.94;1776070;79;21188;-15
2021/04/17 02:04:23;;;;;;;1.10;1.00;;;;;;;17.73;38.81;99282.49;1760674;79;21161;-15
2021/04/17 02:06:50;;;;;;;1.12;1.07;;;;;;;17.73;38.82;99286.48;1710537;82;21204;-15
2021/04/17 02:09:19;;;;;;;1.47;0.98;;;;;;;17.74;38.71;99282.88;1731198;80;21188;-15
2021/04/17 02:11:46;;;;;;;1.10;1.10;;;;;;;17.73;38.68;99282.00;1784773;79;22161;-17
2021/04/17 02:14:13;;;;;;;0.90;0.90;;;;;;;17.71;38.63;99285.25;1774729;79;21181;-15
2021/04/17 02:17:07;;;;;;;1.10;1.00;;;;;;;17.70;38.67;99285.36;1759314;79;21184;-14
2021/04/17 02:19:41;;;;;;;0.98;0.95;;;;;;;17.67;38.70;99285.10;1735041;79;21165;-16
2021/04/17 02:22:09;;;;;;;1.05;1.00;;;;;;;17.65;38.76;99294.97;1782292;78;21146;-15
2021/04/17 02:24:37;;;;;;;0.90;0.90;;;;;;;17.64;38.79;99299.45;1785033;79;21353;-18
2021/04/17 02:27:05;;;;;;;1.05;1.05;;;;;;;17.63;38.79;99297.77;1773825;79;21181;-15
2021/04/17 02:29:34;;;;;;;0.90;0.90;;;;;;;17.61;38.87;99300.98;1753249;78;21157;-16
2021/04/17 02:32:01;;;;;;;1.10;1.10;;;;;;;17.60;38.89;99307.73;1789781;79;21177;-16
2021/04/17 02:34:31;;;;;;;1.07;1.07;;;;;;;17.58;38.97;99309.65;1754605;78;21139;-16
2021/04/17 02:36:58;;;;;;;0.98;0.98;;;;;;;17.55;39.01;99313.84;1784163;79;21355;-16
2021/04/17 02:39:26;;;;;;;1.17;1.10;;;;;;;17.54;39.05;99310.83;1761189;79;21122;-16
2021/04/17 02:41:54;;;;;;;1.17;1.10;;;;;;;17.53;39.06;99309.11;1765357;79;21156;-15
2021/04/17 02:44:22;;;;;;;1.32;1.32;;;;;;;17.53;39.10;99315.76;1765142;79;21159;-16
2021/04/17 02:46:49;;;;;;;2.67;1.67;;;;;;;17.50;39.16;99312.84;1774750;80;21192;-16
2021/04/17 02:49:17;;;;;;;1.30;1.20;;;;;;;17.48;39.18;99314.73;1774596;80;21215;-16
2021/04/17 02:51:45;;;;;;;1.20;1.20;;;;;;;17.45;39.25;99316.28;1766897;80;21261;-16
2021/04/17 02:54:12;;;;;;;1.50;1.40;;;;;;;17.44;39.31;99320.73;1744613;80;21125;-15
2021/04/17 02:56:40;;;;;;;1.30;1.20;;;;;;;17.41;39.37;99327.58;1754148;80;21148;-15
2021/04/17 02:59:07;;;;;;;1.42;1.32;;;;;;;17.39;39.42;99326.83;1671417;84;21231;-16
2021/04/17 03:01:35;;;;;;;1.65;1.55;;;;;;;17.38;39.40;99330.47;1721610;80;21239;-15
2021/04/17 03:04:05;;;;;;;1.50;1.40;;;;;;;17.36;39.51;99329.69;1660274;84;22275;-16
2021/04/17 03:06:32;;;;;;;1.52;1.42;;;;;;;17.35;39.56;99333.32;1721142;80;21693;-16
2021/04/17 03:09:00;;;;;;;0.90;0.90;;;;;;;17.33;39.60;99340.55;1762709;79;21164;-16
2021/04/17 03:11:28;;;;;;;2.20;0.98;;;;;;;17.36;39.63;99342.98;1767732;80;21156;-15
2021/04/17 03:13:58;;;;;;;3.77;1.12;;;;;;;17.43;40.30;99338.99;1762484;80;21188;-17
2021/04/17 03:16:25;;;;;;;2.83;0.95;;;;;;;17.60;40.73;99340.98;1774850;80;21157;-16
2021/04/17 03:18:53;;;;;;;48.45;10.30;;;;;;;17.77;41.04;99346.05;1771162;80;21132;-16
2021/04/17 03:21:20;;;;;;;11.03;4.33;;;;;;;17.89;39.98;99350.22;1759934;80;21188;-16
2021/04/17 03:23:48;;;;;;;8.05;3.72;;;;;;;17.89;39.92;99351.55;1731366;80;21160;-15
2021/04/17 03:26:16;;;;;;;4.95;2.83;;;;;;;17.92;39.91;99350.86;1752801;80;21259;-15
2021/04/17 03:28:43;;;;;;;4.35;2.80;;;;;;;17.98;39.79;99354.91;1747225;80;21183;-15
2021/04/17 03:31:11;;;;;;;6.22;2.45;;;;;;;18.02;39.53;99351.06;1754762;80;21144;-15
2021/04/17 03:33:39;;;;;;;4.35;2.42;;;;;;;18.03;39.46;99352.78;1735531;80;21182;-14
2021/04/17 03:36:07;;;;;;;2.47;1.72;;;;;;;18.06;39.38;99357.89;1721465;80;21223;-15
2021/04/17 03:38:35;;;;;;;2.70;2.27;;;;;;;18.09;39.36;99358.15;1755663;80;21268;-15
2021/04/17 03:41:03;;;;;;;4.45;2.02;;;;;;;18.12;39.24;99364.14;1757354;79;21183;-14
2021/04/17 03:43:31;;;;;;;6.35;2.00;;;;;;;18.14;39.15;99371.55;1773658;80;21255;-14
2021/04/17 03:45:59;;;;;;;2.67;1.70;;;;;;;18.15;39.04;99375.89;1791883;79;21488;-16
2021/04/17 03:48:26;;;;;;;2.75;1.80;;;;;;;18.16;38.97;99378.94;1711956;83;21145;-16
2021/04/17 03:50:54;;;;;;;2.47;1.60;;;;;;;18.16;38.94;99376.28;1729644;81;21209;-15
2021/04/17 03:53:24;;;;;;;1.82;1.72;;;;;;;18.17;38.85;99383.32;1709735;82;21185;-15
2021/04/17 03:55:51;;;;;;;1.75;1.62;;;;;;;18.19;38.81;99386.73;1782430;79;21172;-14
2021/04/17 03:58:19;;;;;;;1.40;1.30;;;;;;;18.20;38.81;99388.90;1792642;79;21125;-15
2021/04/17 04:00:46;;;;;;;2.80;1.60;;;;;;;18.22;38.74;99388.80;1790967;79;21170;-14
2021/04/17 04:03:14;;;;;;;2.75;1.42;;;;;;;18.23;38.65;99394.52;1796459;79;21169;-15
2021/04/17 04:05:41;;;;;;;1.57;1.40;;;;;;;18.25;38.63;99396.58;1763639;80;21157;-14
2021/04/17 04:08:09;;;;;;;1.55;1.45;;;;;;;18.26;38.50;99397.81;1785344;79;21137;-16
2021/04/17 04:10:37;;;;;;;1.70;1.60;;;;;;;18.28;38.46;99401.70;1747989;79;21208;-15
2021/04/17 04:13:04;;;;;;;1.40;1.30;;;;;;;18.27;38.41;99397.32;1774220;79;21206;-14
2021/04/17 04:15:33;;;;;;;1.60;1.50;;;;;;;18.29;38.39;99400.73;1684753;83;21121;-15
2021/04/17 04:18:00;;;;;;;1.60;1.50;;;;;;;18.31;38.38;99402.83;1735809;81;21715;-16
2021/04/17 04:20:28;;;;;;;1.90;1.52;;;;;;;18.31;38.38;99405.49;1726532;82;21193;-14
2021/04/17 04:22:55;;;;;;;1.55;1.32;;;;;;;18.32;38.42;99407.18;1724824;82;21125;-14
2021/04/17 04:25:23;;;;;;;1.40;1.30;;;;;;;18.33;38.37;99414.23;1724777;82;21204;-14
2021/04/17 04:27:50;;;;;;;2.02;1.80;;;;;;;18.33;38.30;99416.89;1719579;80;21647;-17
2021/04/17 04:30:19;;;;;;;3.50;1.77;;;;;;;18.33;38.34;99418.22;1723871;82;21668;-15
2021/04/17 04:32:47;;;;;;;1.60;1.50;;;;;;;18.34;38.37;99426.56;1695167;82;21240;-15
2021/04/17 04:35:15;;;;;;;1.52;1.42;;;;;;;18.36;38.32;99427.34;1719970;83;21200;-14
2021/04/17 04:37:43;;;;;;;1.52;1.42;;;;;;;18.38;38.30;99429.41;1715016;81;21177;-15
2021/04/17 04:40:11;;;;;;;1.95;1.30;;;;;;;18.38;38.20;99428.92;1714387;82;21625;-15
2021/04/17 04:42:39;;;;;;;1.50;1.40;;;;;;;18.40;38.24;99434.64;1775050;78;21149;-14
2021/04/17 04:45:08;;;;;;;1.62;1.52;;;;;;;18.39;38.29;99432.43;1773370;79;21200;-15
2021/04/17 04:47:36;;;;;;;1.60;1.50;;;;;;;18.41;38.16;99429.20;1773852;78;21228;-16
2021/04/17 04:50:06;;;;;;;1.75;1.65;;;;;;;18.41;38.07;99433.20;1753503;79;21192;-14
2021/04/17 04:52:34;;;;;;;1.35;1.25;;;;;;;18.39;38.15;99429.77;1767378;79;22538;-16
2021/04/17 04:55:03;;;;;;;1.87;1.77;;;;;;;18.39;38.29;99437.76;1763731;79;21759;-15
2021/04/17 04:57:30;;;;;;;2.50;2.30;;;;;;;18.41;38.46;99436.33;1765257;79;21176;-15
2021/04/17 04:59:57;;;;;;;3.70;2.30;;;;;;;18.46;38.36;99442.19;1751113;78;21216;-14
2021/04/17 05:02:26;;;;;;;1.98;1.87;;;;;;;18.49;38.33;99446.85;1769322;79;21185;-15
2021/04/17 05:05:01;;;;;;;2.57;2.37;;;;;;;18.50;38.32;99445.88;1771174;79;21284;-15
2021/04/17 05:07:30;;;;;;;2.58;2.45;;;;;;;18.48;38.26;99447.80;1794218;79;21517;-17
2021/04/17 05:09:58;;;;;;;2.60;2.40;;;;;;;18.47;38.35;99447.91;1770805;79;21166;-16
2021/04/17 05:12:25;;;;;;;3.42;3.12;;;;;;;18.44;38.43;99452.98;1763164;79;21180;-15
2021/04/17 05:14:53;;;;;;;2.47;2.27;;;;;;;18.41;38.50;99449.19;1771137;78;21528;-16
2021/04/17 05:17:20;;;;;;;2.90;2.70;;;;;;;18.40;38.58;99458.13;1790182;79;21589;-15
2021/04/17 05:19:49;;;;;;;2.62;2.42;;;;;;;18.42;38.56;99460.20;1762661;79;21623;-15
2021/04/17 05:22:16;;;;;;;2.62;2.42;;;;;;;18.45;38.42;99461.33;1785710;78;21161;-15
2021/04/17 05:24:44;;;;;;;2.92;2.33;;;;;;;18.43;38.51;99463.73;1782777;79;22161;-14
2021/04/17 05:27:11;;;;;;;2.75;2.55;;;;;;;18.41;38.45;99470.50;1776784;79;21141;-15
2021/04/17 05:29:38;;;;;;;2.30;2.10;;;;;;;18.39;38.54;99468.39;1735347;81;21215;-19
2021/04/17 05:32:08;;;;;;;2.10;2.00;;;;;;;18.38;38.51;99471.55;1783259;79;21110;-17
2021/04/17 05:34:35;;;;;;;2.42;2.25;;;;;;;18.36;38.47;99465.96;1764638;79;21102;-16
2021/04/17 05:37:03;;;;;;;2.25;2.05;;;;;;;18.35;38.55;99470.91;1748491;79;21193;-16
2021/04/17 05:39:31;;;;;;;3.17;2.25;;;;;;;18.33;38.50;99472.34;1743609;79;21215;-15
2021/04/17 05:41:59;;;;;;;2.40;2.20;;;;;;;18.33;38.44;99476.82;1769831;78;21202;-17
2021/04/17 05:44:26;;;;;;;2.55;2.35;;;;;;;18.32;38.43;99481.27;1731897;81;21153;-17
2021/04/17 05:46:56;;;;;;;2.55;2.35;;;;;;;18.31;38.53;99481.41;1766548;79;21581;-16
2021/04/17 05:49:24;;;;;;;2.40;2.20;;;;;;;18.30;38.58;99485.02;1781959;78;21201;-16
2021/04/17 05:51:52;;;;;;;2.40;2.20;;;;;;;18.30;38.58;99487.67;1787503;78;21106;-16
2021/04/17 05:54:19;;;;;;;2.70;2.50;;;;;;;18.30;38.58;99486.34;1789060;79;21198;-15
2021/04/17 05:56:47;;;;;;;6.53;3.27;;;;;;;18.29;38.56;99489.50;1787379;79;21172;-16
2021/04/17 05:59:14;;;;;;;5.03;3.72;;;;;;;18.28;38.60;99496.25;1799410;79;21460;-14
2021/04/17 06:01:43;;;;;;;4.87;3.12;;;;;;;18.26;38.58;99498.17;1746866;81;21143;-15
2021/04/17 06:04:11;;;;;;;3.37;3.08;;;;;;;18.27;38.57;99503.86;1784082;79;21156;-14
2021/04/17 06:06:39;;;;;;;4.53;2.50;;;;;;;18.25;38.71;99505.77;1772873;78;21197;-14
2021/04/17 06:09:07;;;;;;;3.67;2.77;;;;;;;18.26;38.75;99511.48;1762218;80;21266;-18
2021/04/17 06:11:35;;;;;;;2.60;2.40;;;;;;;18.26;38.72;99503.50;1777288;79;21181;-16
2021/04/17 06:14:03;;;;;;;3.52;2.75;;;;;;;18.25;38.76;99507.11;1767954;79;21246;-16
2021/04/17 06:16:31;;;;;;;2.62;2.42;;;;;;;18.25;38.77;99509.28;1792298;79;21131;-15
2021/04/17 06:19:00;;;;;;;2.40;2.27;;;;;;;18.25;38.76;99508.44;1773023;78;22129;-15
2021/04/17 06:21:28;;;;;;;2.83;2.55;;;;;;;18.24;38.63;99509.38;1787990;79;21204;-15
2021/04/17 06:23:56;;;;;;;2.65;2.45;;;;;;;18.23;38.66;99511.20;1773599;78;21188;-16
2021/04/17 06:26:24;;;;;;;2.37;2.25;;;;;;;18.19;38.66;99513.22;1772885;79;21168;-17
2021/04/17 06:28:52;;;;;;;2.33;2.12;;;;;;;18.18;38.69;99514.16;1780818;79;21196;-16
2021/04/17 06:31:19;;;;;;;2.52;2.33;;;;;;;18.18;38.63;99516.82;1754767;79;21988;-15
2021/04/17 06:33:50;;;;;;;2.52;2.40;;;;;;;18.16;38.62;99513.41;1774865;79;21196;-16
2021/04/17 06:36:18;;;;;;;2.65;2.08;;;;;;;18.15;38.67;99526.34;1779532;78;21238;-17
2021/04/17 06:38:46;;;;;;;2.60;2.37;;;;;;;18.17;38.93;99522.25;1772823;79;21195;-15
2021/04/17 06:41:14;;;;;;;3.50;2.95;;;;;;;18.29;39.38;99517.91;1792067;79;21191;-13
2021/04/17 06:43:42;;;;;;;3.12;2.58;;;;;;;18.42;39.42;99515.30;1791340;79;21201;-14
2021/04/17 06:46:12;;;;;;;12.65;3.60;;;;;;;18.47;39.32;99518.02;1794137;79;21223;-15
2021/04/17 06:48:40;;;;;;;6.35;4.60;;;;;;;18.52;40.09;99524.38;1799594;79;21181;-15
2021/04/17 06:51:18;;;;;;;9.00;3.98;;;;;;;18.54;40.52;99524.66;1793381;77;21208;-15
2021/04/17 06:53:45;;;;;;;12.90;3.87;;;;;;;18.55;41.03;99525.02;1763865;77;21188;-17
2021/04/17 06:56:13;;;;;;;6.53;3.35;;;;;;;18.59;41.14;99529.66;1791174;79;21529;-15
2021/04/17 06:58:43;;;;;;;3.77;3.27;;;;;;;18.59;41.51;99529.66;1784701;79;21589;-16
2021/04/17 07:01:10;;;;;;;15.93;4.08;;;;;;;18.62;41.42;99535.27;1788130;79;21109;-15
2021/04/17 07:03:38;;;;;;;16.60;3.70;;;;;;;18.65;42.57;99532.41;1787333;79;21193;-18
2021/04/17 07:06:06;;;;;;;9.88;3.50;;;;;;;18.68;42.17;99537.04;1763835;79;21632;-16
2021/04/17 07:08:39;;;;;;;10.95;3.37;;;;;;;18.67;42.19;99531.81;1782539;79;21200;-18
2021/04/17 07:11:07;;;;;;;3.33;2.65;;;;;;;18.62;41.61;99536.59;1768167;79;21195;-17
2021/04/17 07:13:39;;;;;;;28.12;16.77;;;;;;;18.56;41.84;99545.88;1796244;79;21157;-16
2021/04/17 07:16:09;;;;;;;25.57;12.30;;;;;;;18.48;40.56;99541.05;1766241;79;21215;-16
2021/04/17 07:18:39;;;;;;;24.55;12.73;;;;;;;18.25;40.03;99544.39;1799861;77;21415;-16
2021/04/17 07:21:20;;;;;;;16.73;10.03;;;;;;;17.93;40.80;99548.67;1792514;79;21272;-16
2021/04/17 07:23:49;;;;;;;22.10;9.93;;;;;;;17.82;41.79;99550.19;1797233;79;21212;-18
2021/04/17 07:26:24;;;;;;;21.80;9.25;;;;;;;17.99;42.28;99550.95;1794912;79;21220;-17
2021/04/17 07:28:58;;;;;;;18.30;8.70;;;;;;;18.24;42.31;99554.66;1757830;79;21145;-17
2021/04/17 07:31:29;;;;;;;13.53;7.92;;;;;;;18.50;42.20;99563.11;1790987;79;21699;-16
2021/04/17 07:33:57;;;;;;;14.73;7.92;;;;;;;18.74;42.09;99562.41;1795798;77;21425;-16
2021/04/17 07:36:56;;;;;;;14.20;7.58;;;;;;;18.99;41.91;99566.11;1793854;79;21195;-16
2021/04/17 07:39:41;;;;;;;11.73;7.15;;;;;;;19.18;41.76;99565.22;1782153;79;21165;-15
2021/04/17 07:42:15;;;;;;;13.75;7.40;;;;;;;19.40;41.50;99569.03;1798969;77;21164;-18
2021/04/17 07:44:45;;;;;;;12.15;7.05;;;;;;;19.59;41.25;99564.11;1788179;79;21179;-18
2021/04/17 07:47:33;;;;;;;9.65;6.20;;;;;;;19.74;40.99;99564.83;1773429;79;21192;-16
2021/04/17 07:50:09;;;;;;;14.13;5.92;;;;;;;19.89;40.77;99562.91;1778729;78;21209;-16
2021/04/17 07:52:38;;;;;;;16.15;5.78;;;;;;;20.02;40.62;99562.38;1750402;79;21226;-17
2021/04/17 07:55:14;;;;;;;10.25;5.85;;;;;;;20.16;40.43;99567.19;1751385;79;21241;-18
2021/04/17 07:57:46;;;;;;;8.08;5.42;;;;;;;20.25;40.28;99561.16;1773623;78;21593;-16
2021/04/17 08:00:16;;;;;;;7.65;5.22;;;;;;;20.36;40.15;99560.38;1764036;79;21250;-17
2021/04/17 08:02:47;;;;;;;7.72;4.90;;;;;;;20.47;40.01;99568.91;1753202;79;21587;-17
2021/04/17 08:05:16;;;;;;;6.12;4.10;;;;;;;20.54;39.84;99563.46;1780867;78;21193;-17
2021/04/17 08:07:44;;;;;;;13.95;9.20;;;;;;;20.62;39.21;99569.09;1771287;78;21212;-16
2021/04/17 08:10:16;;;;;;;16.00;8.15;;;;;;;20.61;38.56;99572.75;1769539;78;21236;-17
2021/04/17 08:12:46;;;;;;;11.28;7.05;;;;;;;20.55;38.63;99567.85;1777202;79;22274;-15
2021/04/17 08:15:17;;;;;;;8.28;6.12;;;;;;;20.59;38.98;99573.33;1774662;78;21669;-16
2021/04/17 08:17:52;;;;;;;9.53;6.00;;;;;;;20.66;39.05;99572.41;1766600;78;21113;-19
2021/04/17 08:20:21;;;;;;;10.50;6.15;;;;;;;20.72;39.08;99578.14;1742805;79;21130;-16
2021/04/17 08:22:59;;;;;;;7.08;5.47;;;;;;;20.80;39.02;99577.58;1775669;79;21113;-18
2021/04/17 08:25:28;;;;;;;;;;;;;;;20.88;38.97;99579.64;1772198;78;21974;-17
2021/04/17 08:27:56;;;;;;;8.03;4.90;;;;;;;20.95;38.88;99575.55;1771936;78;20294;-16
2021/04/17 08:30:27;;;;;;;7.95;5.47;;;;;;;21.01;38.85;99579.56;1753450;79;21593;-17
2021/04/17 08:32:58;;;;;;;6.33;5.22;;;;;;;21.06;38.76;99583.58;1739478;79;21129;-15
2021/04/17 08:35:26;;;;;;;5.08;4.35;;;;;;;21.13;38.71;99582.16;1789321;78;21133;-16
2021/04/17 08:38:01;;;;;;;8.30;4.60;;;;;;;21.20;38.68;99583.00;1724681;79;22016;-17
2021/04/17 08:40:46;;;;;;;6.30;4.58;;;;;;;21.25;38.60;99590.17;1775218;78;21213;-17
2021/04/17 08:43:24;;;;;;;7.70;4.42;;;;;;;21.30;38.57;99583.97;1770043;79;21141;-16
2021/04/17 08:46:15;;;;;;;9.00;3.95;;;;;;;21.35;38.48;99583.16;1770778;78;21708;-16
2021/04/17 08:48:51;;;;;;;7.47;3.77;;;;;;;21.41;38.43;99582.66;1777308;79;21596;-17
2021/04/17 08:51:32;;;;;;;8.15;4.00;;;;;;;21.46;38.36;99576.95;1767149;78;23371;-17
2021/04/17 08:54:06;;;;;;;6.50;3.75;;;;;;;21.50;38.37;99584.66;1780324;78;21102;-18
2021/04/17 08:56:51;;;;;;;8.40;3.85;;;;;;;21.55;38.27;99585.61;1770255;79;21140;-16
2021/04/17 08:59:32;;;;;;;3.85;3.47;;;;;;;21.60;38.27;99586.12;1767853;78;21180;-17
2021/04/17 09:02:04;;;;;;;8.00;4.28;;;;;;;21.64;38.17;99588.91;1773208;79;21126;-15
2021/04/17 09:04:37;;;;;;;4.42;3.27;;;;;;;21.68;38.17;99585.00;1768258;79;21225;-15
2021/04/17 09:07:18;;;;;;;4.47;3.75;;;;;;;21.72;38.16;99584.29;1746390;79;21212;-15
2021/04/17 09:09:48;;;;;;;12.13;8.13;;;;;;;21.79;36.37;99586.83;1767527;78;21204;-15
2021/04/17 09:12:17;;;;;;;11.70;8.33;;;;;;;21.61;35.74;99590.98;1764518;79;21409;-15
2021/04/17 09:14:55;;;;;;;12.58;7.55;;;;;;;21.31;35.86;99582.52;1776237;78;21099;-14
2021/04/17 09:17:36;;;;;;;11.80;6.47;;;;;;;21.01;35.47;99592.94;1769989;78;21184;-13
2021/04/17 09:20:14;;;;;;;8.15;5.78;;;;;;;20.68;35.63;99586.50;1773090;78;21165;-15
2021/04/17 09:22:43;;;;;;;10.15;5.58;;;;;;;20.34;35.90;99587.20;1774048;79;21556;-15
2021/04/17 09:25:13;;;;;;;6.97;5.05;;;;;;;20.08;36.30;99593.61;1777247;78;21187;-15
2021/04/17 09:27:43;;;;;;;5.67;5.08;;;;;;;19.95;36.21;99590.47;1768050;79;21133;-14
2021/04/17 09:30:19;;;;;;;4.53;4.12;;;;;;;19.81;36.11;99591.97;1760783;79;21189;-15
2021/04/17 09:32:54;;;;;;;5.42;4.62;;;;;;;19.62;36.24;99598.59;1763524;79;21220;-16
2021/04/17 09:35:29;;;;;;;7.85;4.87;;;;;;;19.40;36.57;99597.05;1761771;78;21181;-15
2021/04/17 09:38:07;;;;;;;5.65;4.42;;;;;;;19.24;36.82;99596.78;1744187;79;21106;-15
2021/04/17 09:40:43;;;;;;;8.68;6.97;;;;;;;19.13;36.96;99594.00;1772417;79;21094;-15
2021/04/17 09:43:25;;;;;;;9.15;6.65;;;;;;;19.00;37.16;99596.67;1772224;78;21187;-16
2021/04/17 09:45:54;;;;;;;7.22;4.95;;;;;;;18.93;37.17;99598.90;1770791;78;21129;-15
2021/04/17 09:48:22;;;;;;;6.78;3.77;;;;;;;18.91;38.11;99600.83;1776074;78;21132;-15
2021/04/17 09:50:56;;;;;;;4.65;3.98;;;;;;;19.03;39.67;99603.13;1746134;79;21204;-16
2021/04/17 09:56:12;;;;;;;6.20;3.27;;;;;;;19.49;40.11;99609.27;1813613;77;23206;-14
2021/04/17 09:58:42;;;;;;;5.80;3.30;;;;;;;19.65;40.21;99611.72;1797499;78;21151;-14
2021/04/17 10:01:18;;;;;;;3.25;2.95;;;;;;;19.84;40.24;99607.28;1799015;78;21210;-14
2021/04/17 10:03:45;;;;;;;9.75;2.67;;;;;;;20.01;40.33;99611.41;1788515;78;21179;-15
2021/04/17 10:06:34;;;;;;;6.92;3.25;;;;;;;20.18;40.26;99618.69;1759600;79;21136;-15
2021/04/17 10:09:11;;;;;;;8.08;2.67;;;;;;;20.30;39.99;99611.59;1777494;77;21204;-13
2021/04/17 10:11:42;;;;;;;4.75;2.27;;;;;;;20.44;39.81;99622.09;1789524;77;21230;-13
2021/04/17 10:14:14;;;;;;;6.58;2.50;;;;;;;20.55;39.64;99620.82;1772447;79;21188;-13
2021/04/17 10:16:46;;;;;;;13.43;2.27;;;;;;;20.66;39.47;99620.53;1786531;79;21248;-14
2021/04/17 10:19:19;;;;;;;5.05;2.65;;;;;;;20.76;39.25;99625.09;1792184;77;21196;-14
2021/04/17 10:21:56;;;;;;;6.05;2.40;;;;;;;20.85;39.01;99626.70;1737207;80;21168;-14
2021/04/17 10:24:30;;;;;;;4.03;2.58;;;;;;;20.93;38.81;99625.61;1717383;81;21192;-16
2021/04/17 10:27:07;;;;;;;8.43;2.33;;;;;;;21.02;38.58;99629.43;1731403;80;21241;-14
2021/04/17 10:29:42;;;;;;;6.75;2.58;;;;;;;21.07;38.41;99628.59;1750517;80;21197;-15
2021/04/17 10:32:27;;;;;;;5.80;2.25;;;;;;;21.16;38.26;99627.87;1758362;80;21158;-14
2021/04/17 10:35:04;;;;;;;;;;;;;;;21.22;38.11;99630.58;1719392;80;21597;-14
2021/04/17 10:37:47;;;;;;;5.25;2.60;;;;;;;21.27;37.97;99629.73;1745329;80;20233;-15
2021/04/17 10:40:18;;;;;;;3.75;2.50;;;;;;;21.31;37.85;99630.69;1746579;80;22399;-14
2021/04/17 10:42:54;;;;;;;4.47;2.40;;;;;;;21.36;37.74;99635.70;1765607;80;21166;-16
2021/04/17 10:45:32;;;;;;;2.70;2.40;;;;;;;21.40;37.63;99637.18;1722853;80;21158;-15
2021/04/17 10:48:11;;;;;;;5.55;2.40;;;;;;;21.45;37.54;99643.02;1726897;80;21185;-15
2021/04/17 10:50:43;;;;;;;3.25;2.30;;;;;;;21.48;37.48;99648.14;1716180;80;21260;-15
2021/04/17 10:53:15;;;;;;;6.10;2.40;;;;;;;21.51;37.40;99647.91;1750042;80;21150;-15
2021/04/17 10:55:49;;;;;;;4.20;2.05;;;;;;;21.55;37.33;99649.02;1727784;80;21212;-16
2021/04/17 10:58:32;;;;;;;2.65;2.25;;;;;;;21.59;37.26;99650.50;1721719;82;21204;-15
2021/04/17 11:01:09;;;;;;;3.62;2.12;;;;;;;21.61;37.21;99652.06;1717377;82;22393;-14
2021/04/17 11:03:52;;;;;;;4.22;1.80;;;;;;;21.64;37.14;99646.97;1724063;82;21184;-14
2021/04/17 11:06:25;;;;;;;4.00;2.77;;;;;;;21.68;37.11;99651.09;1699798;82;21207;-14
2021/04/17 11:09:10;;;;;;;7.90;5.08;;;;;;;21.71;36.93;99649.52;1727593;82;21164;-16
2021/04/17 11:12:01;;;;;;;28.52;16.40;;;;;;;21.54;35.18;99652.19;1813839;76;22898;-14
2021/04/17 11:14:30;;;;;;;14.43;10.48;;;;;;;21.05;35.82;99652.78;1763314;79;21199;-14
2021/04/17 11:17:11;;;;;;;14.38;7.37;;;;;;;20.60;36.00;99651.23;1797595;79;20998;-15
2021/04/17 11:19:42;;;;;;;7.45;6.03;;;;;;;20.17;36.34;99659.24;1796727;77;21073;-15
2021/04/17 11:22:15;;;;;;;7.12;5.35;;;;;;;19.71;36.76;99654.47;1783050;79;21668;-15
2021/04/17 11:25:03;;;;;;;10.55;5.72;;;;;;;19.31;37.20;99659.41;1776528;79;21157;-15
2021/04/17 11:27:32;;;;;;;13.35;6.83;;;;;;;19.02;38.28;99665.90;1801157;79;22516;-14
2021/04/17 11:30:01;;;;;;;9.63;6.22;;;;;;;19.03;38.95;99666.25;1796354;79;21206;-14
2021/04/17 11:32:29;;;;;;;7.90;5.83;;;;;;;19.20;39.31;99668.66;1805040;78;21192;-15
2021/04/17 11:34:57;;;;;;;12.78;5.40;;;;;;;19.42;39.40;99663.19;1779504;79;21461;-15
2021/04/17 11:37:29;;;;;;;5.78;4.97;;;;;;;19.63;39.28;99665.67;1786437;78;21113;-13
2021/04/17 11:39:54;;;;;;;8.93;5.15;;;;;;;19.86;39.17;99667.25;1754418;80;21218;-13
2021/04/17 11:42:21;;;;;;;7.28;5.10;;;;;;;20.06;39.09;99666.33;1726892;80;21203;-14
2021/04/17 11:44:49;;;;;;;4.90;4.40;;;;;;;20.23;39.00;99665.95;1718196;81;21176;-15
2021/04/17 11:47:17;;;;;;;5.90;5.22;;;;;;;20.39;37.63;99669.68;1710592;81;21180;-13
2021/04/17 11:49:48;;;;;;;5.35;4.85;;;;;;;20.22;36.99;99666.91;1743135;79;22395;-12
2021/04/17 11:52:16;;;;;;;5.42;4.92;;;;;;;19.80;37.13;99671.68;1722105;82;21173;-14